sensor_id;sensor_type;location;lat;lon;timestamp;temperature;humidity
32839;DHT22;19182;41.820;12.808;2023-04-03T00:00:45;8.80;99.90
32839;DHT22;19182;41.820;12.808;2023-04-03T00:03:11;8.80;99.90
32839;DHT22;19182;41.820;12.808;2023-04-03T00:05:37;8.80;99.90
32839;DHT22;19182;41.820;12.808;2023-04-03T00:08:02;8.70;99.90
32839;DHT22;19182;41.820;12.808;2023-04-03T00:10:30;8.70;99.90
32839;DHT22;19182;41.820;12.808;2023-04-03T00:12:55;8.70;99.90
32839;DHT22;19182;41.820;12.808;2023-04-03T00:15:21;8.60;99.90
32839;DHT22;19182;41.820;12.808;2023-04-03T00:17:47;8.40;99.90
32839;DHT22;19182;41.820;12.808;2023-04-03T00:20:12;8.40;99.90
32839;DHT22;19182;41.820;12.808;2023-04-03T00:22:40;8.50;99.90
32839;DHT22;19182;41.820;12.808;2023-04-03T00:25:07;8.50;99.90
32839;DHT22;19182;41.820;12.808;2023-04-03T00:27:33;8.70;99.90
32839;DHT22;19182;41.820;12.808;2023-04-03T00:30:02;8.70;99.90
32839;DHT22;19182;41.820;12.808;2023-04-03T00:32:28;8.50;99.90
32839;DHT22;19182;41.820;12.808;2023-04-03T00:34:53;8.50;99.90
32839;DHT22;19182;41.820;12.808;2023-04-03T00:37:20;8.60;99.90
32839;DHT22;19182;41.820;12.808;2023-04-03T00:39:47;8.50;99.90
32839;DHT22;19182;41.820;12.808;2023-04-03T00:42:13;8.30;99.90
32839;DHT22;19182;41.820;12.808;2023-04-03T00:47:06;8.30;99.90
32839;DHT22;19182;41.820;12.808;2023-04-03T00:49:32;8.30;99.90
32839;DHT22;19182;41.820;12.808;2023-04-03T00:51:58;8.30;99.90
32839;DHT22;19182;41.820;12.808;2023-04-03T00:54:25;8.30;99.90
32839;DHT22;19182;41.820;12.808;2023-04-03T00:56:54;8.30;99.90
32839;DHT22;19182;41.820;12.808;2023-04-03T00:59:25;8.30;99.90
32839;DHT22;19182;41.820;12.808;2023-04-03T01:01:56;8.40;99.90
32839;DHT22;19182;41.820;12.808;2023-04-03T01:04:34;8.40;99.90
32839;DHT22;19182;41.820;12.808;2023-04-03T01:07:35;8.40;99.90
32839;DHT22;19182;41.820;12.808;2023-04-03T01:10:05;8.30;99.90
32839;DHT22;19182;41.820;12.808;2023-04-03T01:12:33;8.30;99.90
32839;DHT22;19182;41.820;12.808;2023-04-03T01:15:02;8.20;99.90
32839;DHT22;19182;41.820;12.808;2023-04-03T01:17:35;8.30;99.90
32839;DHT22;19182;41.820;12.808;2023-04-03T01:25:47;8.20;99.90
32839;DHT22;19182;41.820;12.808;2023-04-03T01:28:18;8.20;99.90
32839;DHT22;19182;41.820;12.808;2023-04-03T01:30:48;8.20;99.90
32839;DHT22;19182;41.820;12.808;2023-04-03T01:33:17;8.10;99.90
32839;DHT22;19182;41.820;12.808;2023-04-03T01:35:44;8.20;99.90
32839;DHT22;19182;41.820;12.808;2023-04-03T01:38:09;9.80;99.90
32839;DHT22;19182;41.820;12.808;2023-04-03T01:40:35;8.00;99.90
32839;DHT22;19182;41.820;12.808;2023-04-03T01:43:01;8.00;99.90
32839;DHT22;19182;41.820;12.808;2023-04-03T01:45:28;8.00;99.90
32839;DHT22;19182;41.820;12.808;2023-04-03T01:47:54;8.00;99.90
32839;DHT22;19182;41.820;12.808;2023-04-03T01:50:21;8.00;99.90
32839;DHT22;19182;41.820;12.808;2023-04-03T01:52:46;7.80;99.90
32839;DHT22;19182;41.820;12.808;2023-04-03T01:55:12;7.90;99.90
32839;DHT22;19182;41.820;12.808;2023-04-03T01:57:38;8.00;99.90
32839;DHT22;19182;41.820;12.808;2023-04-03T02:00:06;7.80;99.90
32839;DHT22;19182;41.820;12.808;2023-04-03T02:02:33;7.70;99.90
32839;DHT22;19182;41.820;12.808;2023-04-03T02:04:58;7.60;99.90
32839;DHT22;19182;41.820;12.808;2023-04-03T02:07:24;7.60;99.90
32839;DHT22;19182;41.820;12.808;2023-04-03T02:09:50;7.50;99.90
32839;DHT22;19182;41.820;12.808;2023-04-03T02:12:16;7.60;99.90
32839;DHT22;19182;41.820;12.808;2023-04-03T02:14:41;7.50;99.90
32839;DHT22;19182;41.820;12.808;2023-04-03T02:17:08;7.30;99.90
32839;DHT22;19182;41.820;12.808;2023-04-03T02:19:37;7.50;99.90
32839;DHT22;19182;41.820;12.808;2023-04-03T02:22:05;7.50;99.90
32839;DHT22;19182;41.820;12.808;2023-04-03T02:24:31;7.40;99.90
32839;DHT22;19182;41.820;12.808;2023-04-03T02:26:57;7.40;99.90
32839;DHT22;19182;41.820;12.808;2023-04-03T02:29:24;7.40;99.90
32839;DHT22;19182;41.820;12.808;2023-04-03T02:31:50;7.40;99.90
32839;DHT22;19182;41.820;12.808;2023-04-03T02:34:16;7.50;99.90
32839;DHT22;19182;41.820;12.808;2023-04-03T02:36:42;7.40;99.90
32839;DHT22;19182;41.820;12.808;2023-04-03T02:39:08;7.20;99.90
32839;DHT22;19182;41.820;12.808;2023-04-03T02:41:34;7.20;99.90
32839;DHT22;19182;41.820;12.808;2023-04-03T02:44:03;7.10;99.90
32839;DHT22;19182;41.820;12.808;2023-04-03T02:46:30;7.00;99.90
32839;DHT22;19182;41.820;12.808;2023-04-03T02:49:12;7.00;99.90
32839;DHT22;19182;41.820;12.808;2023-04-03T02:51:38;7.00;99.90
32839;DHT22;19182;41.820;12.808;2023-04-03T02:54:04;7.10;99.90
32839;DHT22;19182;41.820;12.808;2023-04-03T02:56:31;6.90;99.90
32839;DHT22;19182;41.820;12.808;2023-04-03T02:58:56;7.00;99.90
32839;DHT22;19182;41.820;12.808;2023-04-03T03:01:22;6.90;99.90
32839;DHT22;19182;41.820;12.808;2023-04-03T03:03:48;6.90;99.90
32839;DHT22;19182;41.820;12.808;2023-04-03T03:06:15;7.00;99.90
32839;DHT22;19182;41.820;12.808;2023-04-03T03:08:41;6.80;99.90
32839;DHT22;19182;41.820;12.808;2023-04-03T03:11:08;6.80;99.90
32839;DHT22;19182;41.820;12.808;2023-04-03T03:13:35;6.80;99.90
32839;DHT22;19182;41.820;12.808;2023-04-03T03:16:02;6.80;99.90
32839;DHT22;19182;41.820;12.808;2023-04-03T03:18:30;6.70;99.90
32839;DHT22;19182;41.820;12.808;2023-04-03T03:20:58;6.80;99.90
32839;DHT22;19182;41.820;12.808;2023-04-03T03:23:24;6.70;99.90
32839;DHT22;19182;41.820;12.808;2023-04-03T03:25:59;6.70;99.90
32839;DHT22;19182;41.820;12.808;2023-04-03T03:28:25;6.50;99.90
32839;DHT22;19182;41.820;12.808;2023-04-03T03:30:52;6.50;99.90
32839;DHT22;19182;41.820;12.808;2023-04-03T03:33:18;6.60;99.90
32839;DHT22;19182;41.820;12.808;2023-04-03T03:35:44;6.60;99.90
32839;DHT22;19182;41.820;12.808;2023-04-03T03:38:11;6.50;99.90
32839;DHT22;19182;41.820;12.808;2023-04-03T03:40:37;6.50;99.90
32839;DHT22;19182;41.820;12.808;2023-04-03T03:43:03;6.50;99.90
32839;DHT22;19182;41.820;12.808;2023-04-03T03:45:29;6.60;99.90
32839;DHT22;19182;41.820;12.808;2023-04-03T03:47:55;6.50;99.90
32839;DHT22;19182;41.820;12.808;2023-04-03T03:50:22;6.40;99.90
32839;DHT22;19182;41.820;12.808;2023-04-03T03:52:48;6.30;99.90
32839;DHT22;19182;41.820;12.808;2023-04-03T03:55:15;6.30;99.90
32839;DHT22;19182;41.820;12.808;2023-04-03T03:57:40;6.30;99.90
32839;DHT22;19182;41.820;12.808;2023-04-03T04:00:07;6.30;99.90
32839;DHT22;19182;41.820;12.808;2023-04-03T04:02:34;6.30;99.90
32839;DHT22;19182;41.820;12.808;2023-04-03T04:04:59;6.20;99.90
32839;DHT22;19182;41.820;12.808;2023-04-03T04:07:27;5.80;99.90
32839;DHT22;19182;41.820;12.808;2023-04-03T04:09:54;5.90;99.90
32839;DHT22;19182;41.820;12.808;2023-04-03T04:12:20;5.90;99.90
32839;DHT22;19182;41.820;12.808;2023-04-03T04:14:48;5.60;99.90
32839;DHT22;19182;41.820;12.808;2023-04-03T04:17:14;5.70;99.90
32839;DHT22;19182;41.820;12.808;2023-04-03T04:19:40;5.70;99.90
32839;DHT22;19182;41.820;12.808;2023-04-03T04:22:06;5.60;99.90
32839;DHT22;19182;41.820;12.808;2023-04-03T04:24:31;5.60;99.90
32839;DHT22;19182;41.820;12.808;2023-04-03T04:26:57;5.60;99.90
32839;DHT22;19182;41.820;12.808;2023-04-03T04:29:23;5.70;99.90
32839;DHT22;19182;41.820;12.808;2023-04-03T04:31:50;5.70;99.90
32839;DHT22;19182;41.820;12.808;2023-04-03T04:34:16;5.80;99.90
32839;DHT22;19182;41.820;12.808;2023-04-03T04:36:43;5.70;99.90
32839;DHT22;19182;41.820;12.808;2023-04-03T04:39:10;5.60;99.90
32839;DHT22;19182;41.820;12.808;2023-04-03T04:41:36;5.70;99.90
32839;DHT22;19182;41.820;12.808;2023-04-03T04:44:03;5.80;99.90
32839;DHT22;19182;41.820;12.808;2023-04-03T04:46:30;5.90;99.90
32839;DHT22;19182;41.820;12.808;2023-04-03T04:48:57;5.90;99.90
32839;DHT22;19182;41.820;12.808;2023-04-03T04:51:22;5.80;99.90
32839;DHT22;19182;41.820;12.808;2023-04-03T04:53:48;5.80;99.90
32839;DHT22;19182;41.820;12.808;2023-04-03T04:56:13;5.80;99.90
32839;DHT22;19182;41.820;12.808;2023-04-03T04:58:39;5.80;99.90
32839;DHT22;19182;41.820;12.808;2023-04-03T05:01:07;5.80;99.90
32839;DHT22;19182;41.820;12.808;2023-04-03T05:03:33;5.70;99.90
32839;DHT22;19182;41.820;12.808;2023-04-03T05:05:59;5.70;99.90
32839;DHT22;19182;41.820;12.808;2023-04-03T05:08:26;5.70;99.90
32839;DHT22;19182;41.820;12.808;2023-04-03T05:10:53;5.70;99.90
32839;DHT22;19182;41.820;12.808;2023-04-03T05:13:19;5.70;99.90
32839;DHT22;19182;41.820;12.808;2023-04-03T05:15:45;5.70;99.90
32839;DHT22;19182;41.820;12.808;2023-04-03T05:18:11;5.70;99.90
32839;DHT22;19182;41.820;12.808;2023-04-03T05:20:52;5.70;99.90
32839;DHT22;19182;41.820;12.808;2023-04-03T05:23:19;5.80;99.90
32839;DHT22;19182;41.820;12.808;2023-04-03T05:25:46;5.90;99.90
32839;DHT22;19182;41.820;12.808;2023-04-03T05:28:14;6.00;99.90
32839;DHT22;19182;41.820;12.808;2023-04-03T05:30:40;6.00;99.90
32839;DHT22;19182;41.820;12.808;2023-04-03T05:33:06;6.00;99.90
32839;DHT22;19182;41.820;12.808;2023-04-03T05:35:32;6.10;99.90
32839;DHT22;19182;41.820;12.808;2023-04-03T05:37:57;6.20;99.90
32839;DHT22;19182;41.820;12.808;2023-04-03T05:40:23;6.20;99.90
32839;DHT22;19182;41.820;12.808;2023-04-03T05:42:49;6.30;99.90
32839;DHT22;19182;41.820;12.808;2023-04-03T05:45:14;6.40;99.90
32839;DHT22;19182;41.820;12.808;2023-04-03T05:47:40;6.50;99.90
32839;DHT22;19182;41.820;12.808;2023-04-03T05:50:06;6.70;99.90
32839;DHT22;19182;41.820;12.808;2023-04-03T05:52:36;6.90;99.90
32839;DHT22;19182;41.820;12.808;2023-04-03T05:55:04;6.90;99.90
32839;DHT22;19182;41.820;12.808;2023-04-03T05:57:29;7.00;99.90
32839;DHT22;19182;41.820;12.808;2023-04-03T05:59:55;7.20;99.90
32839;DHT22;19182;41.820;12.808;2023-04-03T06:02:23;7.30;99.90
32839;DHT22;19182;41.820;12.808;2023-04-03T06:04:50;7.70;99.90
32839;DHT22;19182;41.820;12.808;2023-04-03T06:07:22;7.70;99.90
32839;DHT22;19182;41.820;12.808;2023-04-03T06:09:50;7.90;99.90
32839;DHT22;19182;41.820;12.808;2023-04-03T06:12:16;8.10;99.90
32839;DHT22;19182;41.820;12.808;2023-04-03T06:14:42;8.30;99.90
32839;DHT22;19182;41.820;12.808;2023-04-03T06:17:08;8.50;99.90
32839;DHT22;19182;41.820;12.808;2023-04-03T06:19:35;8.80;99.90
32839;DHT22;19182;41.820;12.808;2023-04-03T06:22:04;9.00;99.90
32839;DHT22;19182;41.820;12.808;2023-04-03T06:24:32;9.20;99.90
32839;DHT22;19182;41.820;12.808;2023-04-03T06:26:57;9.50;99.90
32839;DHT22;19182;41.820;12.808;2023-04-03T06:29:24;9.60;99.90
32839;DHT22;19182;41.820;12.808;2023-04-03T06:31:50;9.80;99.90
32839;DHT22;19182;41.820;12.808;2023-04-03T06:34:16;9.90;99.90
32839;DHT22;19182;41.820;12.808;2023-04-03T06:36:44;10.20;99.90
32839;DHT22;19182;41.820;12.808;2023-04-03T06:39:19;10.40;99.90
32839;DHT22;19182;41.820;12.808;2023-04-03T06:41:50;10.80;99.90
32839;DHT22;19182;41.820;12.808;2023-04-03T06:44:16;11.10;99.90
32839;DHT22;19182;41.820;12.808;2023-04-03T06:46:43;11.80;99.90
32839;DHT22;19182;41.820;12.808;2023-04-03T06:49:09;12.90;99.90
32839;DHT22;19182;41.820;12.808;2023-04-03T06:51:35;14.20;99.90
32839;DHT22;19182;41.820;12.808;2023-04-03T06:54:02;15.50;99.90
32839;DHT22;19182;41.820;12.808;2023-04-03T06:56:28;16.70;99.90
32839;DHT22;19182;41.820;12.808;2023-04-03T06:58:55;17.60;99.90
32839;DHT22;19182;41.820;12.808;2023-04-03T07:01:24;18.60;99.90
32839;DHT22;19182;41.820;12.808;2023-04-03T07:03:51;19.10;99.90
32839;DHT22;19182;41.820;12.808;2023-04-03T07:06:18;19.80;99.90
32839;DHT22;19182;41.820;12.808;2023-04-03T07:08:46;20.40;99.90
32839;DHT22;19182;41.820;12.808;2023-04-03T07:11:13;20.80;99.90
32839;DHT22;19182;41.820;12.808;2023-04-03T07:13:39;21.10;99.90
32839;DHT22;19182;41.820;12.808;2023-04-03T07:16:07;21.60;99.90
32839;DHT22;19182;41.820;12.808;2023-04-03T07:18:34;22.00;99.90
32839;DHT22;19182;41.820;12.808;2023-04-03T07:21:01;22.40;99.90
32839;DHT22;19182;41.820;12.808;2023-04-03T07:23:28;22.20;99.90
32839;DHT22;19182;41.820;12.808;2023-04-03T07:25:54;22.20;99.90
32839;DHT22;19182;41.820;12.808;2023-04-03T07:28:22;22.10;99.90
32839;DHT22;19182;41.820;12.808;2023-04-03T07:30:52;22.10;99.90
32839;DHT22;19182;41.820;12.808;2023-04-03T07:33:19;22.10;99.90
32839;DHT22;19182;41.820;12.808;2023-04-03T07:35:46;21.70;99.90
32839;DHT22;19182;41.820;12.808;2023-04-03T07:38:12;20.80;99.90
32839;DHT22;19182;41.820;12.808;2023-04-03T07:40:38;20.60;99.90
32839;DHT22;19182;41.820;12.808;2023-04-03T07:43:05;20.50;99.90
32839;DHT22;19182;41.820;12.808;2023-04-03T07:45:33;20.20;99.90
32839;DHT22;19182;41.820;12.808;2023-04-03T07:48:00;19.80;99.90
32839;DHT22;19182;41.820;12.808;2023-04-03T07:50:26;19.70;99.90
32839;DHT22;19182;41.820;12.808;2023-04-03T07:52:53;19.50;99.90
32839;DHT22;19182;41.820;12.808;2023-04-03T07:55:22;19.60;99.90
32839;DHT22;19182;41.820;12.808;2023-04-03T07:57:49;19.80;99.90
32839;DHT22;19182;41.820;12.808;2023-04-03T08:00:15;19.60;99.90
32839;DHT22;19182;41.820;12.808;2023-04-03T08:02:43;19.40;99.90
32839;DHT22;19182;41.820;12.808;2023-04-03T08:05:10;19.40;99.90
32839;DHT22;19182;41.820;12.808;2023-04-03T08:07:38;19.50;99.90
32839;DHT22;19182;41.820;12.808;2023-04-03T08:10:04;19.50;99.90
32839;DHT22;19182;41.820;12.808;2023-04-03T08:12:31;19.70;99.90
32839;DHT22;19182;41.820;12.808;2023-04-03T08:14:59;19.70;99.90
32839;DHT22;19182;41.820;12.808;2023-04-03T08:17:26;19.70;99.90
32839;DHT22;19182;41.820;12.808;2023-04-03T08:19:51;19.80;99.90
32839;DHT22;19182;41.820;12.808;2023-04-03T08:22:17;19.80;99.90
32839;DHT22;19182;41.820;12.808;2023-04-03T08:24:43;19.90;99.90
32839;DHT22;19182;41.820;12.808;2023-04-03T08:27:09;20.10;99.90
32839;DHT22;19182;41.820;12.808;2023-04-03T08:29:37;20.30;99.90
32839;DHT22;19182;41.820;12.808;2023-04-03T08:32:05;20.60;99.90
32839;DHT22;19182;41.820;12.808;2023-04-03T08:34:30;20.70;99.90
32839;DHT22;19182;41.820;12.808;2023-04-03T08:37:01;20.90;99.90
32839;DHT22;19182;41.820;12.808;2023-04-03T08:39:27;21.10;99.90
32839;DHT22;19182;41.820;12.808;2023-04-03T08:41:56;21.00;99.90
32839;DHT22;19182;41.820;12.808;2023-04-03T08:49:37;21.40;99.90
32839;DHT22;19182;41.820;12.808;2023-04-03T08:52:11;21.30;99.90
32839;DHT22;19182;41.820;12.808;2023-04-03T08:54:49;21.50;99.90
32839;DHT22;19182;41.820;12.808;2023-04-03T08:57:17;21.60;99.90
32839;DHT22;19182;41.820;12.808;2023-04-03T08:59:45;21.60;99.90
32839;DHT22;19182;41.820;12.808;2023-04-03T09:02:51;21.70;99.90
32839;DHT22;19182;41.820;12.808;2023-04-03T09:05:39;21.60;99.90
32839;DHT22;19182;41.820;12.808;2023-04-03T09:08:24;21.70;99.90
32839;DHT22;19182;41.820;12.808;2023-04-03T09:22:01;22.00;99.90
32839;DHT22;19182;41.820;12.808;2023-04-03T09:24:31;22.40;99.90
32839;DHT22;19182;41.820;12.808;2023-04-03T09:27:06;22.70;98.50
32839;DHT22;19182;41.820;12.808;2023-04-03T09:29:41;23.00;98.00
32839;DHT22;19182;41.820;12.808;2023-04-03T09:32:28;23.10;97.30
32839;DHT22;19182;41.820;12.808;2023-04-03T09:34:57;23.40;98.40
32839;DHT22;19182;41.820;12.808;2023-04-03T09:37:41;23.40;93.40
32839;DHT22;19182;41.820;12.808;2023-04-03T09:40:29;23.50;95.40
32839;DHT22;19182;41.820;12.808;2023-04-03T09:43:03;23.80;90.40
32839;DHT22;19182;41.820;12.808;2023-04-03T09:45:45;23.90;92.00
32839;DHT22;19182;41.820;12.808;2023-04-03T09:50:56;23.50;92.60
32839;DHT22;19182;41.820;12.808;2023-04-03T09:56:02;22.50;95.80
32839;DHT22;19182;41.820;12.808;2023-04-03T09:58:37;22.60;95.50
32839;DHT22;19182;41.820;12.808;2023-04-03T10:01:04;22.40;97.10
32839;DHT22;19182;41.820;12.808;2023-04-03T10:03:33;22.10;96.50
32839;DHT22;19182;41.820;12.808;2023-04-03T10:06:22;21.60;95.00
32839;DHT22;19182;41.820;12.808;2023-04-03T10:09:01;21.50;95.40
32839;DHT22;19182;41.820;12.808;2023-04-03T10:11:28;19.70;95.60
32839;DHT22;19182;41.820;12.808;2023-04-03T10:13:55;21.20;96.60
32839;DHT22;19182;41.820;12.808;2023-04-03T10:16:50;20.80;98.20
32839;DHT22;19182;41.820;12.808;2023-04-03T10:19:41;20.50;98.10
32839;DHT22;19182;41.820;12.808;2023-04-03T10:25:20;20.00;99.90
32839;DHT22;19182;41.820;12.808;2023-04-03T10:38:48;19.90;98.90
32839;DHT22;19182;41.820;12.808;2023-04-03T10:47:12;20.20;98.20
32839;DHT22;19182;41.820;12.808;2023-04-03T10:58:45;20.60;95.20
32839;DHT22;19182;41.820;12.808;2023-04-03T11:01:20;20.60;93.80
32839;DHT22;19182;41.820;12.808;2023-04-03T11:03:53;21.20;94.20
32839;DHT22;19182;41.820;12.808;2023-04-03T11:06:21;22.30;93.20
32839;DHT22;19182;41.820;12.808;2023-04-03T11:08:58;23.30;88.40
32839;DHT22;19182;41.820;12.808;2023-04-03T11:11:29;23.90;85.60
32839;DHT22;19182;41.820;12.808;2023-04-03T11:14:13;24.20;86.70
32839;DHT22;19182;41.820;12.808;2023-04-03T11:16:48;24.70;83.50
32839;DHT22;19182;41.820;12.808;2023-04-03T11:19:29;25.00;81.50
32839;DHT22;19182;41.820;12.808;2023-04-03T11:22:13;24.50;79.70
32839;DHT22;19182;41.820;12.808;2023-04-03T11:24:43;24.70;79.50
32839;DHT22;19182;41.820;12.808;2023-04-03T11:27:17;24.30;80.50
32839;DHT22;19182;41.820;12.808;2023-04-03T11:29:48;24.30;77.00
32839;DHT22;19182;41.820;12.808;2023-04-03T11:34:53;24.00;76.80
32839;DHT22;19182;41.820;12.808;2023-04-03T11:37:51;23.50;74.10
32839;DHT22;19182;41.820;12.808;2023-04-03T11:40:30;23.10;72.00
32839;DHT22;19182;41.820;12.808;2023-04-03T11:43:07;22.80;73.60
32839;DHT22;19182;41.820;12.808;2023-04-03T11:45:37;23.20;71.60
32839;DHT22;19182;41.820;12.808;2023-04-03T11:50:54;23.90;68.40
32839;DHT22;19182;41.820;12.808;2023-04-03T11:53:40;23.50;70.40
32839;DHT22;19182;41.820;12.808;2023-04-03T11:56:29;22.80;72.00
32839;DHT22;19182;41.820;12.808;2023-04-03T12:01:45;23.00;69.40
32839;DHT22;19182;41.820;12.808;2023-04-03T12:04:12;23.30;69.30
32839;DHT22;19182;41.820;12.808;2023-04-03T12:12:37;22.60;70.30
32839;DHT22;19182;41.820;12.808;2023-04-03T12:21:24;23.20;70.20
32839;DHT22;19182;41.820;12.808;2023-04-03T12:27:25;23.10;71.30
32839;DHT22;19182;41.820;12.808;2023-04-03T12:30:05;23.30;67.50
32839;DHT22;19182;41.820;12.808;2023-04-03T12:32:48;22.90;71.10
32839;DHT22;19182;41.820;12.808;2023-04-03T12:35:29;22.60;71.00
32839;DHT22;19182;41.820;12.808;2023-04-03T12:41:26;23.70;73.30
32839;DHT22;19182;41.820;12.808;2023-04-03T12:44:06;24.10;73.40
32839;DHT22;19182;41.820;12.808;2023-04-03T12:46:42;23.40;74.30
32839;DHT22;19182;41.820;12.808;2023-04-03T12:51:50;22.40;68.60
32839;DHT22;19182;41.820;12.808;2023-04-03T12:54:35;23.20;73.30
32839;DHT22;19182;41.820;12.808;2023-04-03T12:57:20;22.60;67.70
32839;DHT22;19182;41.820;12.808;2023-04-03T12:59:46;22.50;72.60
32839;DHT22;19182;41.820;12.808;2023-04-03T13:02:28;22.50;70.20
32839;DHT22;19182;41.820;12.808;2023-04-03T13:05:08;22.00;69.90
32839;DHT22;19182;41.820;12.808;2023-04-03T13:07:37;21.40;71.60
32839;DHT22;19182;41.820;12.808;2023-04-03T13:12:59;21.90;71.20
32839;DHT22;19182;41.820;12.808;2023-04-03T13:15:44;21.80;71.20
32839;DHT22;19182;41.820;12.808;2023-04-03T13:18:33;21.70;68.60
32839;DHT22;19182;41.820;12.808;2023-04-03T13:21:20;21.90;71.90
32839;DHT22;19182;41.820;12.808;2023-04-03T13:23:51;22.20;71.50
32839;DHT22;19182;41.820;12.808;2023-04-03T13:26:18;22.10;70.20
32839;DHT22;19182;41.820;12.808;2023-04-03T13:28:45;22.10;69.10
32839;DHT22;19182;41.820;12.808;2023-04-03T13:31:26;22.30;68.10
32839;DHT22;19182;41.820;12.808;2023-04-03T13:36:57;22.40;68.40
32839;DHT22;19182;41.820;12.808;2023-04-03T13:39:27;22.60;68.80
32839;DHT22;19182;41.820;12.808;2023-04-03T13:41:59;22.30;70.60
32839;DHT22;19182;41.820;12.808;2023-04-03T13:44:33;22.30;73.80
32839;DHT22;19182;41.820;12.808;2023-04-03T13:47:22;22.00;72.60
32839;DHT22;19182;41.820;12.808;2023-04-03T13:50:00;22.00;73.20
32839;DHT22;19182;41.820;12.808;2023-04-03T13:52:40;21.70;73.60
32839;DHT22;19182;41.820;12.808;2023-04-03T13:58:02;20.90;77.50
32839;DHT22;19182;41.820;12.808;2023-04-03T14:00:33;20.60;76.00
32839;DHT22;19182;41.820;12.808;2023-04-03T14:03:01;20.50;80.40
32839;DHT22;19182;41.820;12.808;2023-04-03T14:05:27;20.60;81.10
32839;DHT22;19182;41.820;12.808;2023-04-03T14:07:55;20.40;80.30
32839;DHT22;19182;41.820;12.808;2023-04-03T14:10:22;20.40;80.90
32839;DHT22;19182;41.820;12.808;2023-04-03T14:12:47;19.90;78.60
32839;DHT22;19182;41.820;12.808;2023-04-03T14:15:24;19.40;80.70
32839;DHT22;19182;41.820;12.808;2023-04-03T14:20:20;19.00;83.60
32839;DHT22;19182;41.820;12.808;2023-04-03T14:22:47;19.10;85.00
32839;DHT22;19182;41.820;12.808;2023-04-03T14:25:15;19.10;83.20
32839;DHT22;19182;41.820;12.808;2023-04-03T14:27:50;19.00;83.10
32839;DHT22;19182;41.820;12.808;2023-04-03T14:30:33;19.10;85.40
32839;DHT22;19182;41.820;12.808;2023-04-03T14:33:17;19.10;83.60
32839;DHT22;19182;41.820;12.808;2023-04-03T14:35:44;19.20;84.30
32839;DHT22;19182;41.820;12.808;2023-04-03T14:38:26;19.00;84.60
32839;DHT22;19182;41.820;12.808;2023-04-03T14:40:53;18.80;81.50
32839;DHT22;19182;41.820;12.808;2023-04-03T14:43:22;19.20;82.20
32839;DHT22;19182;41.820;12.808;2023-04-03T14:45:49;18.90;82.50
32839;DHT22;19182;41.820;12.808;2023-04-03T14:48:20;18.70;82.90
32839;DHT22;19182;41.820;12.808;2023-04-03T14:50:48;18.70;84.50
32839;DHT22;19182;41.820;12.808;2023-04-03T14:55:46;18.50;85.90
32839;DHT22;19182;41.820;12.808;2023-04-03T14:58:17;18.50;86.80
32839;DHT22;19182;41.820;12.808;2023-04-03T15:00:45;18.30;86.30
32839;DHT22;19182;41.820;12.808;2023-04-03T15:03:21;18.20;85.50
32839;DHT22;19182;41.820;12.808;2023-04-03T15:05:56;18.10;84.50
32839;DHT22;19182;41.820;12.808;2023-04-03T15:08:29;18.10;85.10
32839;DHT22;19182;41.820;12.808;2023-04-03T15:10:56;17.90;85.60
32839;DHT22;19182;41.820;12.808;2023-04-03T15:13:24;17.80;87.00
32839;DHT22;19182;41.820;12.808;2023-04-03T15:15:51;17.80;86.80
32839;DHT22;19182;41.820;12.808;2023-04-03T15:18:22;17.60;87.00
32839;DHT22;19182;41.820;12.808;2023-04-03T15:20:49;17.70;88.60
32839;DHT22;19182;41.820;12.808;2023-04-03T15:23:16;17.70;87.80
32839;DHT22;19182;41.820;12.808;2023-04-03T15:25:46;17.70;89.10
32839;DHT22;19182;41.820;12.808;2023-04-03T15:28:26;17.60;89.10
32839;DHT22;19182;41.820;12.808;2023-04-03T15:30:55;17.60;89.60
32839;DHT22;19182;41.820;12.808;2023-04-03T15:33:23;17.50;87.00
32839;DHT22;19182;41.820;12.808;2023-04-03T15:35:49;17.40;88.10
32839;DHT22;19182;41.820;12.808;2023-04-03T15:38:18;17.30;89.30
32839;DHT22;19182;41.820;12.808;2023-04-03T15:40:45;17.10;88.10
32839;DHT22;19182;41.820;12.808;2023-04-03T15:43:14;16.70;89.00
32839;DHT22;19182;41.820;12.808;2023-04-03T15:45:41;16.90;89.70
32839;DHT22;19182;41.820;12.808;2023-04-03T15:48:08;16.90;89.10
32839;DHT22;19182;41.820;12.808;2023-04-03T15:50:35;16.70;89.00
32839;DHT22;19182;41.820;12.808;2023-04-03T15:53:02;16.70;88.70
32839;DHT22;19182;41.820;12.808;2023-04-03T15:55:30;16.70;88.60
32839;DHT22;19182;41.820;12.808;2023-04-03T15:57:57;16.70;87.70
32839;DHT22;19182;41.820;12.808;2023-04-03T16:00:24;17.90;89.20
32839;DHT22;19182;41.820;12.808;2023-04-03T16:02:56;16.40;90.30
32839;DHT22;19182;41.820;12.808;2023-04-03T16:05:25;16.40;89.90
32839;DHT22;19182;41.820;12.808;2023-04-03T16:07:52;16.30;89.00
32839;DHT22;19182;41.820;12.808;2023-04-03T16:10:19;16.20;90.20
32839;DHT22;19182;41.820;12.808;2023-04-03T16:15:12;16.10;90.00
32839;DHT22;19182;41.820;12.808;2023-04-03T16:17:40;16.00;90.10
32839;DHT22;19182;41.820;12.808;2023-04-03T16:20:07;16.00;90.20
32839;DHT22;19182;41.820;12.808;2023-04-03T16:22:34;15.70;90.20
32839;DHT22;19182;41.820;12.808;2023-04-03T16:25:01;15.60;90.80
32839;DHT22;19182;41.820;12.808;2023-04-03T16:27:28;15.60;91.00
32839;DHT22;19182;41.820;12.808;2023-04-03T16:32:26;15.40;90.90
32839;DHT22;19182;41.820;12.808;2023-04-03T16:34:57;15.40;90.60
32839;DHT22;19182;41.820;12.808;2023-04-03T16:37:25;15.40;91.50
32839;DHT22;19182;41.820;12.808;2023-04-03T16:39:54;15.30;90.40
32839;DHT22;19182;41.820;12.808;2023-04-03T16:42:24;15.30;90.50
32839;DHT22;19182;41.820;12.808;2023-04-03T16:44:57;15.20;90.80
32839;DHT22;19182;41.820;12.808;2023-04-03T16:47:29;15.20;90.80
32839;DHT22;19182;41.820;12.808;2023-04-03T16:50:02;15.00;91.20
32839;DHT22;19182;41.820;12.808;2023-04-03T16:52:33;15.10;91.10
32839;DHT22;19182;41.820;12.808;2023-04-03T16:55:02;15.00;91.30
32839;DHT22;19182;41.820;12.808;2023-04-03T16:57:29;15.00;91.40
32839;DHT22;19182;41.820;12.808;2023-04-03T16:59:58;15.00;91.30
32839;DHT22;19182;41.820;12.808;2023-04-03T17:02:25;15.00;91.30
32839;DHT22;19182;41.820;12.808;2023-04-03T17:04:54;15.00;92.30
32839;DHT22;19182;41.820;12.808;2023-04-03T17:07:22;14.90;91.00
32839;DHT22;19182;41.820;12.808;2023-04-03T17:09:50;14.90;91.90
32839;DHT22;19182;41.820;12.808;2023-04-03T17:12:16;14.80;91.40
32839;DHT22;19182;41.820;12.808;2023-04-03T17:14:42;14.60;91.20
32839;DHT22;19182;41.820;12.808;2023-04-03T17:17:08;14.60;91.80
32839;DHT22;19182;41.820;12.808;2023-04-03T17:19:36;14.60;91.70
32839;DHT22;19182;41.820;12.808;2023-04-03T17:22:03;14.60;91.40
32839;DHT22;19182;41.820;12.808;2023-04-03T17:24:30;14.60;91.20